Relevés horaires Saint-Mandrier-sur-Mer - Cap Cépet (France)


Relevés horaires à Saint-Mandrier-sur-Mer - Cap Cépet - Mardi 04 Févr. 2020
Heure UTC1 Température [°C] Vent [km/h] Hum. [%] Pres.4 [hPa] Visi. [Km] Nébu. [octa] Préc.5 [mm] Cond.
2m. Res. Ros. Dir.2 Vit. Moy. Raf.3
23:00 8.0 4.6 0.2 NNO 22.2 -- 44.4 58 1023.4(3.1/3h) -- -- -- --
22:00 8.4 4.7 -0.6 NNO 27.8 -- 48.2 53 1022.4(1.1/3h) -- -- -- --
21:00 8.7 4.6 -1.2 NNO 33.3 -- 53.7 50 1021.8(1.0/3h) -- -- -- --
20:00 9.2 5.1 -0.7 NNO 37.0 -- 50.0 50 1020.2(1.4/3h) -- -- -- --
19:00 9.7 6.2 -1.7 NNO 29.6 -- 46.3 45 1021.2(3.6/3h) -- -- -- --
18:00 9.9 6.3 -1.2 NNO 31.5 -- 53.7 46 1020.7(4.0/3h) -- -- -- --
17:00 10.8 7.2 -3.3 NNO 37.0 -- 55.6 37 1018.7(4.1/3h) -- -- -- --
16:00 11.5 8 -2.3 NNO 38.9 -- 57.4 38 1017.4(3.4/3h) -- -- -- --
15:00 12.3 9.1 -2.4 NNO 38.9 -- 66.7 36 1016.5(2.0/3h) -- -- -- --
14:00 12.5 9.3 -3.0 NNO 40.7 -- 72.2 34 1014.4(-1.2/3h) -- -- -- --
13:00 12.9 9.5 -2.2 NNO 48.2 -- 68.5 35 1013.9(-2.2/3h) -- -- -- --
12:00 13.6 10.5 -2.8 NNO 48.2 -- 64.8 32 1014.4(-1.8/3h) -- -- -- --
11:00 14.6 12.2 -2.8 NNO 38.9 -- 64.8 30 1015.5(-0.8/3h) -- -- -- --
10:00 14.8 12.6 0.2 NNO 35.2 -- 46.3 37 1016(0.7/3h) -- -- -- --
09:00 14.7 12.7 2.9 NNO 29.6 -- 48.2 45 1016.1(1.1/3h) 30 0/8 -- --
08:00 14.3 12.3 8.9 NO 27.8 -- 48.2 70 1016.3(0.4/3h) -- -- -- --
07:00 14.3 12.3 9.1 NO 27.8 -- 51.9 71 1015.3(-1.5/3h) -- -- -- --
06:00 14.3 11.9 9.1 NO 35.2 -- 50.0 71 1015(-2.8/3h) 20 5/8 -- --
05:00 15.2 13.5 8.0 NO 27.8 -- 40.7 62 1015.9(-2.7/3h) -- -- -- --
04:00 14.7 13.2 9.1 NO 22.2 -- 29.6 69 1016.8(-2.5/3h) -- -- -- --
03:00 14.8 13.3 9.4 NO 22.2 -- 31.5 70 1017.8(-2.2/3h) 20 3/8 -- --
02:00 14.0 12.4 10.6 NO 20.4 -- 29.6 80 1018.7(-1.9/3h) -- -- -- --
01:00 16.5 15.8 7.9 NO 16.7 -- 22.2 57 1019.3(-1.5/3h) -- -- -- --
00:00 15.4 14.3 9.5 NO 18.5 -- 27.8 68 1020(-0.7/3h) -- -- -- --

1 Coordinated Universal Time. Actuellement il est 03:00 locale et 01:00 UTC.

2 Le vent souffle depuis la direction indiquée vers la direction oposée.

3 Les rafales max. sont disponible 40 min après l'heure du relevé.

4 Pour les stations d'altitude (plus de 600m) le géopotentiel du niveau le plus proche de la pression obligatoire est indiqué.

5 Les stations disposant d'un diffuseur peuvent indiquer "trace". Cela signifie que des précipitations ont touchés le sol mais que la quantité est inférieure à 0.1 mm.

Récapitulatif de la journée
Température [°C] Vent [km/h] Ensoleillement4 [h] Precipitations totale5 [mm] Pression [Hpa]
Min1 Max.2 Moy.3 Max. Min Max.
13.8 15.0 0 72.2 0 h 0 min 0 1013.9 1023.4

1 Température minimale relevée entre 18:00 UTC la veille et 18:00 UTC le jour donné.

2 Température maximale relevée entre 06:00 UTC le jour donné et 06:00 UTC le lendemain.

3 Vent moyen de la journée basé sur les relevés horaires.

4 Ensoleillement en heures relevé entre 06:00 UTC la veille et 06:00 UTC le jour donné.

5 Précipitations totales tombées entre 06:00 UTC la jour donné et 06:00 UTC le lendemain.

Graphiques horaires